sensor_id;sensor_type;location;lat;lon;timestamp;P1;durP1;ratioP1;P2;durP2;ratioP2
74293;SDS011;64044;59.904;10.738;2023-01-04T00:01:13;8.80;;;4.75;;
74293;SDS011;64044;59.904;10.738;2023-01-04T00:03:43;10.90;;;4.63;;
74293;SDS011;64044;59.904;10.738;2023-01-04T00:06:10;10.40;;;5.13;;
74293;SDS011;64044;59.904;10.738;2023-01-04T00:08:38;8.85;;;4.80;;
74293;SDS011;64044;59.904;10.738;2023-01-04T00:11:09;8.77;;;4.57;;
74293;SDS011;64044;59.904;10.738;2023-01-04T00:13:46;11.20;;;5.28;;
74293;SDS011;64044;59.904;10.738;2023-01-04T00:16:14;9.07;;;4.75;;
74293;SDS011;64044;59.904;10.738;2023-01-04T00:18:44;6.70;;;3.78;;
74293;SDS011;64044;59.904;10.738;2023-01-04T00:21:14;9.93;;;4.10;;
74293;SDS011;64044;59.904;10.738;2023-01-04T00:23:42;9.55;;;4.43;;
74293;SDS011;64044;59.904;10.738;2023-01-04T00:26:10;11.65;;;5.30;;
74293;SDS011;64044;59.904;10.738;2023-01-04T00:28:38;7.93;;;4.35;;
74293;SDS011;64044;59.904;10.738;2023-01-04T00:31:05;10.77;;;5.63;;
74293;SDS011;64044;59.904;10.738;2023-01-04T00:33:32;10.73;;;5.18;;
74293;SDS011;64044;59.904;10.738;2023-01-04T00:36:02;10.15;;;5.30;;
74293;SDS011;64044;59.904;10.738;2023-01-04T00:41:46;7.53;;;4.28;;
74293;SDS011;64044;59.904;10.738;2023-01-04T00:44:13;10.05;;;5.38;;
74293;SDS011;64044;59.904;10.738;2023-01-04T00:46:40;11.48;;;5.25;;
74293;SDS011;64044;59.904;10.738;2023-01-04T00:49:06;11.85;;;5.47;;
74293;SDS011;64044;59.904;10.738;2023-01-04T00:51:34;13.05;;;5.43;;
74293;SDS011;64044;59.904;10.738;2023-01-04T00:54:01;10.52;;;5.90;;
74293;SDS011;64044;59.904;10.738;2023-01-04T00:56:28;9.80;;;5.40;;
74293;SDS011;64044;59.904;10.738;2023-01-04T00:58:55;11.40;;;5.93;;
74293;SDS011;64044;59.904;10.738;2023-01-04T01:01:22;10.38;;;5.25;;
74293;SDS011;64044;59.904;10.738;2023-01-04T01:03:55;10.38;;;5.38;;
74293;SDS011;64044;59.904;10.738;2023-01-04T01:06:22;10.95;;;6.15;;
74293;SDS011;64044;59.904;10.738;2023-01-04T01:08:50;11.00;;;5.72;;
74293;SDS011;64044;59.904;10.738;2023-01-04T01:11:16;14.30;;;6.88;;
74293;SDS011;64044;59.904;10.738;2023-01-04T01:13:42;12.40;;;6.05;;
74293;SDS011;64044;59.904;10.738;2023-01-04T01:16:10;11.57;;;6.10;;
74293;SDS011;64044;59.904;10.738;2023-01-04T01:18:37;11.60;;;5.85;;
74293;SDS011;64044;59.904;10.738;2023-01-04T01:21:05;11.60;;;5.60;;
74293;SDS011;64044;59.904;10.738;2023-01-04T01:23:33;13.85;;;6.45;;
74293;SDS011;64044;59.904;10.738;2023-01-04T01:25:59;12.65;;;6.53;;
74293;SDS011;64044;59.904;10.738;2023-01-04T01:28:26;9.90;;;5.55;;
74293;SDS011;64044;59.904;10.738;2023-01-04T01:30:52;12.38;;;6.18;;
74293;SDS011;64044;59.904;10.738;2023-01-04T01:33:18;17.25;;;6.60;;
74293;SDS011;64044;59.904;10.738;2023-01-04T01:35:43;12.75;;;5.93;;
74293;SDS011;64044;59.904;10.738;2023-01-04T01:38:09;12.05;;;5.80;;
74293;SDS011;64044;59.904;10.738;2023-01-04T01:40:39;11.45;;;6.38;;
74293;SDS011;64044;59.904;10.738;2023-01-04T01:43:10;10.95;;;5.63;;
74293;SDS011;64044;59.904;10.738;2023-01-04T01:45:43;12.13;;;5.75;;
74293;SDS011;64044;59.904;10.738;2023-01-04T01:48:11;10.43;;;5.40;;
74293;SDS011;64044;59.904;10.738;2023-01-04T01:50:46;10.32;;;5.97;;
74293;SDS011;64044;59.904;10.738;2023-01-04T01:53:33;15.45;;;7.55;;
74293;SDS011;64044;59.904;10.738;2023-01-04T01:56:02;13.13;;;6.60;;
74293;SDS011;64044;59.904;10.738;2023-01-04T01:58:33;12.38;;;7.00;;
74293;SDS011;64044;59.904;10.738;2023-01-04T02:01:03;14.48;;;6.55;;
74293;SDS011;64044;59.904;10.738;2023-01-04T02:03:30;14.32;;;6.88;;
74293;SDS011;64044;59.904;10.738;2023-01-04T02:05:57;11.50;;;6.43;;
74293;SDS011;64044;59.904;10.738;2023-01-04T02:08:25;10.82;;;6.30;;
74293;SDS011;64044;59.904;10.738;2023-01-04T02:10:52;12.18;;;7.20;;
74293;SDS011;64044;59.904;10.738;2023-01-04T02:13:19;11.98;;;6.70;;
74293;SDS011;64044;59.904;10.738;2023-01-04T02:18:35;9.80;;;5.97;;
74293;SDS011;64044;59.904;10.738;2023-01-04T02:21:28;9.10;;;5.23;;
74293;SDS011;64044;59.904;10.738;2023-01-04T02:24:18;13.50;;;6.28;;
74293;SDS011;64044;59.904;10.738;2023-01-04T02:27:23;12.70;;;6.72;;
74293;SDS011;64044;59.904;10.738;2023-01-04T02:38:32;9.30;;;5.05;;
74293;SDS011;64044;59.904;10.738;2023-01-04T02:49:10;10.93;;;5.88;;
74293;SDS011;64044;59.904;10.738;2023-01-04T02:51:54;12.13;;;6.20;;
74293;SDS011;64044;59.904;10.738;2023-01-04T02:54:21;11.43;;;5.93;;
74293;SDS011;64044;59.904;10.738;2023-01-04T02:59:37;10.77;;;5.47;;
74293;SDS011;64044;59.904;10.738;2023-01-04T03:11:07;10.68;;;6.47;;
74293;SDS011;64044;59.904;10.738;2023-01-04T03:14:14;11.95;;;5.90;;
74293;SDS011;64044;59.904;10.738;2023-01-04T03:16:45;10.35;;;6.20;;
74293;SDS011;64044;59.904;10.738;2023-01-04T03:19:12;10.60;;;5.90;;
74293;SDS011;64044;59.904;10.738;2023-01-04T03:22:01;11.05;;;6.43;;
74293;SDS011;64044;59.904;10.738;2023-01-04T03:24:28;8.48;;;5.28;;
74293;SDS011;64044;59.904;10.738;2023-01-04T03:27:14;9.98;;;5.68;;
74293;SDS011;64044;59.904;10.738;2023-01-04T03:30:03;8.80;;;5.43;;
74293;SDS011;64044;59.904;10.738;2023-01-04T03:33:01;9.77;;;6.05;;
74293;SDS011;64044;59.904;10.738;2023-01-04T03:38:49;10.82;;;5.60;;
74293;SDS011;64044;59.904;10.738;2023-01-04T03:44:43;9.73;;;5.53;;
74293;SDS011;64044;59.904;10.738;2023-01-04T03:50:40;9.77;;;5.60;;
74293;SDS011;64044;59.904;10.738;2023-01-04T03:53:13;10.73;;;5.57;;
74293;SDS011;64044;59.904;10.738;2023-01-04T03:55:39;9.30;;;5.65;;
74293;SDS011;64044;59.904;10.738;2023-01-04T03:58:07;11.27;;;5.28;;
74293;SDS011;64044;59.904;10.738;2023-01-04T04:00:33;10.05;;;5.55;;
74293;SDS011;64044;59.904;10.738;2023-01-04T04:02:59;8.63;;;4.93;;
74293;SDS011;64044;59.904;10.738;2023-01-04T04:05:33;12.23;;;5.28;;
74293;SDS011;64044;59.904;10.738;2023-01-04T04:08:21;10.57;;;5.43;;
74293;SDS011;64044;59.904;10.738;2023-01-04T04:10:53;7.95;;;5.43;;
74293;SDS011;64044;59.904;10.738;2023-01-04T04:13:45;8.45;;;5.32;;
74293;SDS011;64044;59.904;10.738;2023-01-04T04:16:12;7.82;;;4.75;;
74293;SDS011;64044;59.904;10.738;2023-01-04T04:18:38;11.55;;;4.93;;
74293;SDS011;64044;59.904;10.738;2023-01-04T04:21:04;11.07;;;5.57;;
74293;SDS011;64044;59.904;10.738;2023-01-04T04:23:29;9.63;;;4.75;;
74293;SDS011;64044;59.904;10.738;2023-01-04T04:25:55;11.45;;;4.88;;
74293;SDS011;64044;59.904;10.738;2023-01-04T04:28:21;7.57;;;4.53;;
74293;SDS011;64044;59.904;10.738;2023-01-04T04:30:50;7.68;;;4.57;;
74293;SDS011;64044;59.904;10.738;2023-01-04T04:33:16;9.93;;;4.50;;
74293;SDS011;64044;59.904;10.738;2023-01-04T04:35:42;7.55;;;4.55;;
74293;SDS011;64044;59.904;10.738;2023-01-04T04:38:07;7.65;;;4.05;;
74293;SDS011;64044;59.904;10.738;2023-01-04T04:40:33;7.10;;;3.65;;
74293;SDS011;64044;59.904;10.738;2023-01-04T04:43:18;7.63;;;4.10;;
74293;SDS011;64044;59.904;10.738;2023-01-04T04:45:43;10.00;;;4.47;;
74293;SDS011;64044;59.904;10.738;2023-01-04T04:48:09;7.15;;;4.07;;
74293;SDS011;64044;59.904;10.738;2023-01-04T04:50:35;6.60;;;4.18;;
74293;SDS011;64044;59.904;10.738;2023-01-04T04:53:00;7.32;;;4.13;;
74293;SDS011;64044;59.904;10.738;2023-01-04T04:55:26;8.13;;;4.25;;
74293;SDS011;64044;59.904;10.738;2023-01-04T04:57:52;8.40;;;4.32;;
74293;SDS011;64044;59.904;10.738;2023-01-04T05:00:18;9.90;;;5.25;;
74293;SDS011;64044;59.904;10.738;2023-01-04T05:02:43;10.27;;;4.22;;
74293;SDS011;64044;59.904;10.738;2023-01-04T05:05:09;7.53;;;4.00;;
74293;SDS011;64044;59.904;10.738;2023-01-04T05:07:35;7.30;;;5.25;;
74293;SDS011;64044;59.904;10.738;2023-01-04T05:10:00;8.85;;;4.50;;
74293;SDS011;64044;59.904;10.738;2023-01-04T05:12:26;7.28;;;4.78;;
74293;SDS011;64044;59.904;10.738;2023-01-04T05:15:10;7.20;;;4.22;;
74293;SDS011;64044;59.904;10.738;2023-01-04T05:17:36;8.68;;;4.57;;
74293;SDS011;64044;59.904;10.738;2023-01-04T05:20:02;7.97;;;4.78;;
74293;SDS011;64044;59.904;10.738;2023-01-04T05:22:28;9.13;;;4.15;;
74293;SDS011;64044;59.904;10.738;2023-01-04T05:24:54;6.85;;;4.70;;
74293;SDS011;64044;59.904;10.738;2023-01-04T05:27:19;6.78;;;3.67;;
74293;SDS011;64044;59.904;10.738;2023-01-04T05:29:45;9.25;;;3.90;;
74293;SDS011;64044;59.904;10.738;2023-01-04T05:32:29;5.47;;;3.55;;
74293;SDS011;64044;59.904;10.738;2023-01-04T05:34:55;9.30;;;3.75;;
74293;SDS011;64044;59.904;10.738;2023-01-04T05:37:21;6.10;;;3.45;;
74293;SDS011;64044;59.904;10.738;2023-01-04T05:39:47;5.80;;;3.42;;
74293;SDS011;64044;59.904;10.738;2023-01-04T05:42:12;6.82;;;3.40;;
74293;SDS011;64044;59.904;10.738;2023-01-04T05:44:51;5.22;;;3.72;;
74293;SDS011;64044;59.904;10.738;2023-01-04T05:47:18;7.70;;;4.20;;
74293;SDS011;64044;59.904;10.738;2023-01-04T05:49:44;7.28;;;3.45;;
74293;SDS011;64044;59.904;10.738;2023-01-04T05:52:10;7.28;;;4.18;;
74293;SDS011;64044;59.904;10.738;2023-01-04T05:54:36;7.88;;;4.60;;
74293;SDS011;64044;59.904;10.738;2023-01-04T05:57:01;8.70;;;3.78;;
74293;SDS011;64044;59.904;10.738;2023-01-04T05:59:27;5.47;;;3.45;;
74293;SDS011;64044;59.904;10.738;2023-01-04T06:01:53;11.98;;;4.05;;
74293;SDS011;64044;59.904;10.738;2023-01-04T06:04:19;9.50;;;4.07;;
74293;SDS011;64044;59.904;10.738;2023-01-04T06:06:44;4.35;;;3.10;;
74293;SDS011;64044;59.904;10.738;2023-01-04T06:09:10;5.97;;;3.55;;
74293;SDS011;64044;59.904;10.738;2023-01-04T06:11:36;7.22;;;3.92;;
74293;SDS011;64044;59.904;10.738;2023-01-04T06:14:02;4.88;;;3.17;;
74293;SDS011;64044;59.904;10.738;2023-01-04T06:16:28;5.00;;;2.95;;
74293;SDS011;64044;59.904;10.738;2023-01-04T06:18:54;7.10;;;3.33;;
74293;SDS011;64044;59.904;10.738;2023-01-04T06:21:20;6.75;;;3.78;;
74293;SDS011;64044;59.904;10.738;2023-01-04T06:23:45;6.05;;;3.40;;
74293;SDS011;64044;59.904;10.738;2023-01-04T06:26:11;5.10;;;3.08;;
74293;SDS011;64044;59.904;10.738;2023-01-04T06:28:37;5.88;;;3.15;;
74293;SDS011;64044;59.904;10.738;2023-01-04T06:31:06;5.80;;;2.80;;
74293;SDS011;64044;59.904;10.738;2023-01-04T06:33:33;6.82;;;3.50;;
74293;SDS011;64044;59.904;10.738;2023-01-04T06:35:59;6.35;;;3.65;;
74293;SDS011;64044;59.904;10.738;2023-01-04T06:38:25;7.60;;;3.15;;
74293;SDS011;64044;59.904;10.738;2023-01-04T06:40:51;5.93;;;3.25;;
74293;SDS011;64044;59.904;10.738;2023-01-04T06:43:17;8.80;;;3.40;;
74293;SDS011;64044;59.904;10.738;2023-01-04T06:45:43;5.70;;;3.05;;
74293;SDS011;64044;59.904;10.738;2023-01-04T06:48:09;5.00;;;2.75;;
74293;SDS011;64044;59.904;10.738;2023-01-04T06:50:35;5.70;;;2.75;;
74293;SDS011;64044;59.904;10.738;2023-01-04T06:53:01;4.18;;;2.58;;
74293;SDS011;64044;59.904;10.738;2023-01-04T06:55:27;5.45;;;2.55;;
74293;SDS011;64044;59.904;10.738;2023-01-04T06:57:56;4.18;;;2.70;;
74293;SDS011;64044;59.904;10.738;2023-01-04T07:00:25;13.88;;;3.10;;
74293;SDS011;64044;59.904;10.738;2023-01-04T07:02:50;3.03;;;2.15;;
74293;SDS011;64044;59.904;10.738;2023-01-04T07:05:16;4.05;;;2.25;;
74293;SDS011;64044;59.904;10.738;2023-01-04T07:07:42;5.22;;;2.53;;
74293;SDS011;64044;59.904;10.738;2023-01-04T07:10:08;5.28;;;2.92;;
74293;SDS011;64044;59.904;10.738;2023-01-04T07:12:34;4.93;;;2.38;;
74293;SDS011;64044;59.904;10.738;2023-01-04T07:15:00;3.92;;;2.40;;
74293;SDS011;64044;59.904;10.738;2023-01-04T07:17:26;5.32;;;2.85;;
74293;SDS011;64044;59.904;10.738;2023-01-04T07:19:51;3.42;;;2.15;;
74293;SDS011;64044;59.904;10.738;2023-01-04T07:22:17;3.17;;;1.90;;
74293;SDS011;64044;59.904;10.738;2023-01-04T07:24:43;4.75;;;2.00;;
74293;SDS011;64044;59.904;10.738;2023-01-04T07:27:09;6.05;;;2.45;;
74293;SDS011;64044;59.904;10.738;2023-01-04T07:29:35;3.17;;;1.95;;
74293;SDS011;64044;59.904;10.738;2023-01-04T07:32:01;4.78;;;2.30;;
74293;SDS011;64044;59.904;10.738;2023-01-04T07:34:27;4.03;;;1.98;;
74293;SDS011;64044;59.904;10.738;2023-01-04T07:36:53;3.28;;;2.20;;
74293;SDS011;64044;59.904;10.738;2023-01-04T07:39:19;4.15;;;2.20;;
74293;SDS011;64044;59.904;10.738;2023-01-04T07:41:46;3.45;;;2.00;;
74293;SDS011;64044;59.904;10.738;2023-01-04T07:44:12;3.97;;;2.00;;
74293;SDS011;64044;59.904;10.738;2023-01-04T07:46:38;2.80;;;1.92;;
74293;SDS011;64044;59.904;10.738;2023-01-04T07:49:05;4.57;;;2.60;;
74293;SDS011;64044;59.904;10.738;2023-01-04T07:51:31;6.13;;;2.72;;
74293;SDS011;64044;59.904;10.738;2023-01-04T07:53:57;4.68;;;2.17;;
74293;SDS011;64044;59.904;10.738;2023-01-04T07:56:23;6.38;;;2.25;;
74293;SDS011;64044;59.904;10.738;2023-01-04T07:58:49;5.30;;;2.53;;
74293;SDS011;64044;59.904;10.738;2023-01-04T08:01:16;3.30;;;2.58;;
74293;SDS011;64044;59.904;10.738;2023-01-04T08:03:43;5.43;;;2.10;;
74293;SDS011;64044;59.904;10.738;2023-01-04T08:06:10;2.40;;;1.90;;
74293;SDS011;64044;59.904;10.738;2023-01-04T08:08:38;2.72;;;1.80;;
74293;SDS011;64044;59.904;10.738;2023-01-04T08:11:05;5.38;;;2.33;;
74293;SDS011;64044;59.904;10.738;2023-01-04T08:13:33;5.30;;;2.08;;
74293;SDS011;64044;59.904;10.738;2023-01-04T08:15:58;2.95;;;1.63;;
74293;SDS011;64044;59.904;10.738;2023-01-04T08:18:25;4.18;;;2.03;;
74293;SDS011;64044;59.904;10.738;2023-01-04T08:20:59;9.20;;;2.15;;
74293;SDS011;64044;59.904;10.738;2023-01-04T08:23:29;3.05;;;1.80;;
74293;SDS011;64044;59.904;10.738;2023-01-04T08:25:59;2.28;;;1.80;;
74293;SDS011;64044;59.904;10.738;2023-01-04T08:28:35;3.75;;;1.73;;
74293;SDS011;64044;59.904;10.738;2023-01-04T08:31:06;3.33;;;1.65;;
74293;SDS011;64044;59.904;10.738;2023-01-04T08:33:40;2.58;;;1.60;;
74293;SDS011;64044;59.904;10.738;2023-01-04T08:36:08;2.50;;;1.42;;
74293;SDS011;64044;59.904;10.738;2023-01-04T08:38:40;3.33;;;1.85;;
74293;SDS011;64044;59.904;10.738;2023-01-04T08:41:06;4.35;;;1.77;;
74293;SDS011;64044;59.904;10.738;2023-01-04T08:43:32;3.03;;;1.55;;
74293;SDS011;64044;59.904;10.738;2023-01-04T08:45:59;5.20;;;1.60;;
74293;SDS011;64044;59.904;10.738;2023-01-04T08:48:26;3.95;;;2.17;;
74293;SDS011;64044;59.904;10.738;2023-01-04T08:50:52;2.92;;;1.70;;
74293;SDS011;64044;59.904;10.738;2023-01-04T08:53:18;4.18;;;1.85;;
74293;SDS011;64044;59.904;10.738;2023-01-04T08:55:50;4.85;;;1.75;;
74293;SDS011;64044;59.904;10.738;2023-01-04T08:58:16;5.18;;;2.58;;
74293;SDS011;64044;59.904;10.738;2023-01-04T09:00:42;3.88;;;1.90;;
74293;SDS011;64044;59.904;10.738;2023-01-04T09:03:08;3.08;;;1.70;;
74293;SDS011;64044;59.904;10.738;2023-01-04T09:05:33;4.00;;;1.90;;
74293;SDS011;64044;59.904;10.738;2023-01-04T09:07:59;2.35;;;1.50;;
74293;SDS011;64044;59.904;10.738;2023-01-04T09:10:25;3.35;;;1.50;;
74293;SDS011;64044;59.904;10.738;2023-01-04T09:12:50;3.22;;;1.63;;
74293;SDS011;64044;59.904;10.738;2023-01-04T09:15:16;4.75;;;1.63;;
74293;SDS011;64044;59.904;10.738;2023-01-04T09:17:43;2.70;;;1.35;;
74293;SDS011;64044;59.904;10.738;2023-01-04T09:20:09;2.40;;;1.48;;
74293;SDS011;64044;59.904;10.738;2023-01-04T09:22:35;3.25;;;1.40;;
74293;SDS011;64044;59.904;10.738;2023-01-04T09:25:01;2.05;;;1.30;;
74293;SDS011;64044;59.904;10.738;2023-01-04T09:27:26;1.73;;;1.00;;
74293;SDS011;64044;59.904;10.738;2023-01-04T09:29:54;2.67;;;1.00;;
74293;SDS011;64044;59.904;10.738;2023-01-04T09:32:20;4.00;;;1.58;;
74293;SDS011;64044;59.904;10.738;2023-01-04T09:34:46;1.30;;;1.05;;
74293;SDS011;64044;59.904;10.738;2023-01-04T09:37:12;2.88;;;1.10;;
74293;SDS011;64044;59.904;10.738;2023-01-04T09:39:37;1.70;;;1.20;;
74293;SDS011;64044;59.904;10.738;2023-01-04T09:42:04;3.85;;;1.58;;
74293;SDS011;64044;59.904;10.738;2023-01-04T09:44:48;2.58;;;0.85;;
74293;SDS011;64044;59.904;10.738;2023-01-04T09:50:10;2.30;;;0.93;;
74293;SDS011;64044;59.904;10.738;2023-01-04T09:52:51;0.70;;;0.68;;
74293;SDS011;64044;59.904;10.738;2023-01-04T09:55:25;3.15;;;0.90;;
74293;SDS011;64044;59.904;10.738;2023-01-04T09:57:58;1.67;;;1.10;;
74293;SDS011;64044;59.904;10.738;2023-01-04T10:00:30;1.20;;;0.70;;
74293;SDS011;64044;59.904;10.738;2023-01-04T10:03:02;1.65;;;1.00;;
74293;SDS011;64044;59.904;10.738;2023-01-04T10:05:30;1.77;;;1.10;;
74293;SDS011;64044;59.904;10.738;2023-01-04T10:07:57;1.73;;;0.85;;
74293;SDS011;64044;59.904;10.738;2023-01-04T10:13:59;2.25;;;1.30;;
74293;SDS011;64044;59.904;10.738;2023-01-04T10:16:35;3.03;;;0.98;;
74293;SDS011;64044;59.904;10.738;2023-01-04T10:19:46;1.10;;;0.68;;
74293;SDS011;64044;59.904;10.738;2023-01-04T10:27:43;2.33;;;1.13;;
74293;SDS011;64044;59.904;10.738;2023-01-04T10:35:34;2.80;;;1.02;;
74293;SDS011;64044;59.904;10.738;2023-01-04T10:38:01;1.58;;;0.80;;
74293;SDS011;64044;59.904;10.738;2023-01-04T10:40:36;2.33;;;0.98;;
74293;SDS011;64044;59.904;10.738;2023-01-04T10:43:06;2.03;;;0.80;;
74293;SDS011;64044;59.904;10.738;2023-01-04T10:45:45;2.45;;;1.00;;
74293;SDS011;64044;59.904;10.738;2023-01-04T10:51:08;5.60;;;1.13;;
74293;SDS011;64044;59.904;10.738;2023-01-04T11:04:12;1.80;;;0.90;;
74293;SDS011;64044;59.904;10.738;2023-01-04T11:06:44;2.10;;;0.70;;
74293;SDS011;64044;59.904;10.738;2023-01-04T11:09:26;2.53;;;0.95;;
74293;SDS011;64044;59.904;10.738;2023-01-04T11:11:58;1.25;;;0.80;;
74293;SDS011;64044;59.904;10.738;2023-01-04T11:14:24;2.03;;;0.90;;
74293;SDS011;64044;59.904;10.738;2023-01-04T11:16:51;1.35;;;0.68;;
74293;SDS011;64044;59.904;10.738;2023-01-04T11:22:17;2.50;;;0.80;;
74293;SDS011;64044;59.904;10.738;2023-01-04T11:24:50;1.58;;;0.82;;
74293;SDS011;64044;59.904;10.738;2023-01-04T11:27:25;1.38;;;0.77;;
74293;SDS011;64044;59.904;10.738;2023-01-04T11:29:59;1.65;;;0.93;;
74293;SDS011;64044;59.904;10.738;2023-01-04T11:38:13;2.13;;;0.98;;
74293;SDS011;64044;59.904;10.738;2023-01-04T11:40:54;3.05;;;0.88;;
74293;SDS011;64044;59.904;10.738;2023-01-04T11:43:30;3.28;;;1.10;;
74293;SDS011;64044;59.904;10.738;2023-01-04T11:46:16;2.70;;;0.85;;
74293;SDS011;64044;59.904;10.738;2023-01-04T11:48:48;2.15;;;0.70;;
74293;SDS011;64044;59.904;10.738;2023-01-04T11:54:35;2.35;;;0.70;;
74293;SDS011;64044;59.904;10.738;2023-01-04T11:59:32;1.88;;;1.00;;
74293;SDS011;64044;59.904;10.738;2023-01-04T12:04:53;5.05;;;0.80;;
74293;SDS011;64044;59.904;10.738;2023-01-04T12:07:32;3.92;;;0.80;;
74293;SDS011;64044;59.904;10.738;2023-01-04T12:10:00;1.83;;;0.65;;
74293;SDS011;64044;59.904;10.738;2023-01-04T12:12:27;3.85;;;0.82;;
74293;SDS011;64044;59.904;10.738;2023-01-04T12:14:55;3.13;;;0.60;;
74293;SDS011;64044;59.904;10.738;2023-01-04T12:20:19;2.00;;;1.15;;
74293;SDS011;64044;59.904;10.738;2023-01-04T12:22:48;2.35;;;0.90;;
74293;SDS011;64044;59.904;10.738;2023-01-04T12:25:27;1.60;;;0.73;;
74293;SDS011;64044;59.904;10.738;2023-01-04T12:33:51;1.67;;;0.68;;
74293;SDS011;64044;59.904;10.738;2023-01-04T12:44:06;2.30;;;0.70;;
74293;SDS011;64044;59.904;10.738;2023-01-04T12:52:50;1.33;;;0.73;;
74293;SDS011;64044;59.904;10.738;2023-01-04T13:05:57;6.07;;;1.10;;
74293;SDS011;64044;59.904;10.738;2023-01-04T13:08:24;2.65;;;1.10;;
74293;SDS011;64044;59.904;10.738;2023-01-04T13:10:51;4.18;;;1.38;;
74293;SDS011;64044;59.904;10.738;2023-01-04T13:23:44;2.05;;;0.63;;
74293;SDS011;64044;59.904;10.738;2023-01-04T13:40:25;3.67;;;0.60;;
74293;SDS011;64044;59.904;10.738;2023-01-04T13:43:16;2.85;;;0.57;;
74293;SDS011;64044;59.904;10.738;2023-01-04T13:46:12;0.55;;;0.40;;
74293;SDS011;64044;59.904;10.738;2023-01-04T13:48:44;1.80;;;0.82;;
74293;SDS011;64044;59.904;10.738;2023-01-04T13:53:58;1.58;;;0.65;;
74293;SDS011;64044;59.904;10.738;2023-01-04T13:56:26;1.08;;;0.50;;
74293;SDS011;64044;59.904;10.738;2023-01-04T13:58:53;2.47;;;0.70;;
74293;SDS011;64044;59.904;10.738;2023-01-04T14:03:49;1.35;;;0.65;;
74293;SDS011;64044;59.904;10.738;2023-01-04T14:06:20;11.98;;;1.40;;
74293;SDS011;64044;59.904;10.738;2023-01-04T14:11:30;1.27;;;0.68;;
74293;SDS011;64044;59.904;10.738;2023-01-04T14:24:50;1.02;;;0.50;;
74293;SDS011;64044;59.904;10.738;2023-01-04T14:27:30;1.83;;;0.68;;
74293;SDS011;64044;59.904;10.738;2023-01-04T14:35:26;2.08;;;0.75;;
74293;SDS011;64044;59.904;10.738;2023-01-04T14:37:53;1.92;;;0.82;;
74293;SDS011;64044;59.904;10.738;2023-01-04T14:40:26;1.80;;;0.77;;
74293;SDS011;64044;59.904;10.738;2023-01-04T14:42:55;1.52;;;0.70;;
74293;SDS011;64044;59.904;10.738;2023-01-04T14:45:22;1.50;;;0.65;;
74293;SDS011;64044;59.904;10.738;2023-01-04T14:47:48;1.27;;;0.70;;
74293;SDS011;64044;59.904;10.738;2023-01-04T14:50:14;1.23;;;0.60;;
74293;SDS011;64044;59.904;10.738;2023-01-04T14:52:48;5.53;;;0.77;;
74293;SDS011;64044;59.904;10.738;2023-01-04T14:55:15;1.25;;;0.60;;
74293;SDS011;64044;59.904;10.738;2023-01-04T14:57:41;2.92;;;0.60;;
74293;SDS011;64044;59.904;10.738;2023-01-04T15:00:12;2.28;;;0.68;;
74293;SDS011;64044;59.904;10.738;2023-01-04T15:02:42;1.58;;;0.60;;
74293;SDS011;64044;59.904;10.738;2023-01-04T15:05:09;2.03;;;0.60;;
74293;SDS011;64044;59.904;10.738;2023-01-04T15:07:37;5.07;;;2.50;;
74293;SDS011;64044;59.904;10.738;2023-01-04T15:10:05;3.65;;;0.93;;
74293;SDS011;64044;59.904;10.738;2023-01-04T15:12:57;3.38;;;0.90;;
74293;SDS011;64044;59.904;10.738;2023-01-04T15:15:24;1.27;;;0.65;;
74293;SDS011;64044;59.904;10.738;2023-01-04T15:17:50;1.00;;;0.80;;
74293;SDS011;64044;59.904;10.738;2023-01-04T15:20:16;2.08;;;0.70;;
74293;SDS011;64044;59.904;10.738;2023-01-04T15:22:43;1.55;;;0.45;;
74293;SDS011;64044;59.904;10.738;2023-01-04T15:25:09;1.05;;;0.70;;
74293;SDS011;64044;59.904;10.738;2023-01-04T15:27:35;2.00;;;0.60;;
74293;SDS011;64044;59.904;10.738;2023-01-04T15:30:01;2.15;;;0.60;;
74293;SDS011;64044;59.904;10.738;2023-01-04T15:32:30;2.95;;;0.60;;
74293;SDS011;64044;59.904;10.738;2023-01-04T15:34:56;2.08;;;0.73;;
74293;SDS011;64044;59.904;10.738;2023-01-04T15:37:21;0.82;;;0.60;;
74293;SDS011;64044;59.904;10.738;2023-01-04T15:39:47;2.65;;;1.10;;
74293;SDS011;64044;59.904;10.738;2023-01-04T15:42:13;3.00;;;0.90;;
74293;SDS011;64044;59.904;10.738;2023-01-04T15:44:57;4.55;;;1.05;;
74293;SDS011;64044;59.904;10.738;2023-01-04T15:47:23;1.60;;;0.80;;
74293;SDS011;64044;59.904;10.738;2023-01-04T15:49:49;1.40;;;0.82;;
74293;SDS011;64044;59.904;10.738;2023-01-04T15:52:15;3.50;;;0.70;;
74293;SDS011;64044;59.904;10.738;2023-01-04T15:54:41;2.42;;;0.90;;
74293;SDS011;64044;59.904;10.738;2023-01-04T15:57:06;2.28;;;0.90;;
74293;SDS011;64044;59.904;10.738;2023-01-04T15:59:32;2.13;;;0.70;;
74293;SDS011;64044;59.904;10.738;2023-01-04T16:01:58;2.15;;;0.88;;
74293;SDS011;64044;59.904;10.738;2023-01-04T16:04:24;3.55;;;1.08;;
74293;SDS011;64044;59.904;10.738;2023-01-04T16:06:50;1.70;;;0.85;;
74293;SDS011;64044;59.904;10.738;2023-01-04T16:09:16;2.60;;;0.93;;
74293;SDS011;64044;59.904;10.738;2023-01-04T16:11:42;2.05;;;1.10;;
74293;SDS011;64044;59.904;10.738;2023-01-04T16:14:26;1.52;;;0.90;;
74293;SDS011;64044;59.904;10.738;2023-01-04T16:16:52;1.80;;;1.00;;
74293;SDS011;64044;59.904;10.738;2023-01-04T16:19:18;2.47;;;0.85;;
74293;SDS011;64044;59.904;10.738;2023-01-04T16:21:43;2.53;;;1.05;;
74293;SDS011;64044;59.904;10.738;2023-01-04T16:24:09;3.60;;;1.10;;
74293;SDS011;64044;59.904;10.738;2023-01-04T16:26:36;1.48;;;0.90;;
74293;SDS011;64044;59.904;10.738;2023-01-04T16:29:02;1.75;;;1.17;;
74293;SDS011;64044;59.904;10.738;2023-01-04T16:31:32;2.95;;;1.23;;
74293;SDS011;64044;59.904;10.738;2023-01-04T16:33:58;1.47;;;0.90;;
74293;SDS011;64044;59.904;10.738;2023-01-04T16:36:24;2.67;;;1.23;;
74293;SDS011;64044;59.904;10.738;2023-01-04T16:38:49;2.33;;;1.15;;
74293;SDS011;64044;59.904;10.738;2023-01-04T16:41:16;2.63;;;1.17;;
74293;SDS011;64044;59.904;10.738;2023-01-04T16:43:52;3.65;;;0.80;;
74293;SDS011;64044;59.904;10.738;2023-01-04T16:46:21;2.78;;;1.30;;
74293;SDS011;64044;59.904;10.738;2023-01-04T16:48:53;2.58;;;0.98;;
74293;SDS011;64044;59.904;10.738;2023-01-04T16:51:21;2.40;;;1.58;;
74293;SDS011;64044;59.904;10.738;2023-01-04T16:53:48;4.80;;;1.48;;
74293;SDS011;64044;59.904;10.738;2023-01-04T16:56:17;3.65;;;1.42;;
74293;SDS011;64044;59.904;10.738;2023-01-04T16:58:44;2.72;;;1.10;;
74293;SDS011;64044;59.904;10.738;2023-01-04T17:03:41;2.38;;;1.13;;
74293;SDS011;64044;59.904;10.738;2023-01-04T17:06:09;3.17;;;1.20;;
74293;SDS011;64044;59.904;10.738;2023-01-04T17:08:37;6.88;;;1.27;;
74293;SDS011;64044;59.904;10.738;2023-01-04T17:11:07;2.35;;;0.90;;
74293;SDS011;64044;59.904;10.738;2023-01-04T17:13:51;0.85;;;0.65;;
74293;SDS011;64044;59.904;10.738;2023-01-04T17:16:17;1.65;;;1.15;;
74293;SDS011;64044;59.904;10.738;2023-01-04T17:18:45;1.75;;;1.00;;
74293;SDS011;64044;59.904;10.738;2023-01-04T17:21:15;2.10;;;1.10;;
74293;SDS011;64044;59.904;10.738;2023-01-04T17:23:43;5.03;;;1.30;;
74293;SDS011;64044;59.904;10.738;2023-01-04T17:26:11;2.13;;;1.23;;
74293;SDS011;64044;59.904;10.738;2023-01-04T17:28:38;2.17;;;1.10;;
74293;SDS011;64044;59.904;10.738;2023-01-04T17:31:05;1.52;;;0.93;;
74293;SDS011;64044;59.904;10.738;2023-01-04T17:33:45;2.78;;;1.10;;
74293;SDS011;64044;59.904;10.738;2023-01-04T17:36:12;1.92;;;0.95;;
74293;SDS011;64044;59.904;10.738;2023-01-04T17:38:39;1.67;;;0.98;;
74293;SDS011;64044;59.904;10.738;2023-01-04T17:41:19;4.65;;;0.98;;